sensor_id;sensor_type;location;lat;lon;timestamp;temperature;humidity
15554;DHT22;7878;44.632;10.942;2023-03-12T00:02:10;14.30;74.90
15554;DHT22;7878;44.632;10.942;2023-03-12T00:04:36;14.30;75.10
15554;DHT22;7878;44.632;10.942;2023-03-12T00:07:03;14.20;76.40
15554;DHT22;7878;44.632;10.942;2023-03-12T00:09:34;14.10;74.50
15554;DHT22;7878;44.632;10.942;2023-03-12T00:12:00;14.10;75.80
15554;DHT22;7878;44.632;10.942;2023-03-12T00:14:25;14.10;74.80
15554;DHT22;7878;44.632;10.942;2023-03-12T00:16:51;14.20;75.80
15554;DHT22;7878;44.632;10.942;2023-03-12T00:19:16;14.30;74.30
15554;DHT22;7878;44.632;10.942;2023-03-12T00:21:42;14.40;74.80
15554;DHT22;7878;44.632;10.942;2023-03-12T00:24:08;14.40;75.20
15554;DHT22;7878;44.632;10.942;2023-03-12T00:26:34;14.50;73.80
15554;DHT22;7878;44.632;10.942;2023-03-12T00:28:59;14.50;74.70
15554;DHT22;7878;44.632;10.942;2023-03-12T00:31:29;14.40;74.80
15554;DHT22;7878;44.632;10.942;2023-03-12T00:33:57;14.40;74.40
15554;DHT22;7878;44.632;10.942;2023-03-12T00:36:25;14.40;74.00
15554;DHT22;7878;44.632;10.942;2023-03-12T00:38:52;14.30;74.50
15554;DHT22;7878;44.632;10.942;2023-03-12T00:41:18;14.30;74.90
15554;DHT22;7878;44.632;10.942;2023-03-12T00:43:48;14.20;75.20
15554;DHT22;7878;44.632;10.942;2023-03-12T00:46:14;14.10;74.70
15554;DHT22;7878;44.632;10.942;2023-03-12T00:48:40;14.10;75.30
15554;DHT22;7878;44.632;10.942;2023-03-12T00:51:06;14.10;74.90
15554;DHT22;7878;44.632;10.942;2023-03-12T00:53:32;14.10;74.50
15554;DHT22;7878;44.632;10.942;2023-03-12T00:55:58;14.10;74.60
15554;DHT22;7878;44.632;10.942;2023-03-12T00:58:23;14.10;75.40
15554;DHT22;7878;44.632;10.942;2023-03-12T01:00:49;14.10;74.90
15554;DHT22;7878;44.632;10.942;2023-03-12T01:03:15;14.10;74.90
15554;DHT22;7878;44.632;10.942;2023-03-12T01:05:41;14.10;74.90
15554;DHT22;7878;44.632;10.942;2023-03-12T01:08:08;14.00;74.60
15554;DHT22;7878;44.632;10.942;2023-03-12T01:10:34;14.10;74.70
15554;DHT22;7878;44.632;10.942;2023-03-12T01:13:00;14.20;74.40
15554;DHT22;7878;44.632;10.942;2023-03-12T01:15:27;14.20;75.30
15554;DHT22;7878;44.632;10.942;2023-03-12T01:17:53;14.20;74.70
15554;DHT22;7878;44.632;10.942;2023-03-12T01:20:19;14.10;75.10
15554;DHT22;7878;44.632;10.942;2023-03-12T01:22:45;14.10;75.00
15554;DHT22;7878;44.632;10.942;2023-03-12T01:25:10;14.10;75.30
15554;DHT22;7878;44.632;10.942;2023-03-12T01:27:36;14.10;75.10
15554;DHT22;7878;44.632;10.942;2023-03-12T01:30:03;14.00;75.60
15554;DHT22;7878;44.632;10.942;2023-03-12T01:32:52;14.00;75.30
15554;DHT22;7878;44.632;10.942;2023-03-12T01:35:18;13.90;77.80
15554;DHT22;7878;44.632;10.942;2023-03-12T01:37:44;13.90;75.50
15554;DHT22;7878;44.632;10.942;2023-03-12T01:40:21;13.90;75.90
15554;DHT22;7878;44.632;10.942;2023-03-12T01:42:56;13.80;76.80
15554;DHT22;7878;44.632;10.942;2023-03-12T01:48:52;13.70;77.60
15554;DHT22;7878;44.632;10.942;2023-03-12T01:51:16;13.80;75.90
15554;DHT22;7878;44.632;10.942;2023-03-12T01:53:47;13.90;75.80
15554;DHT22;7878;44.632;10.942;2023-03-12T01:56:16;14.00;76.10
15554;DHT22;7878;44.632;10.942;2023-03-12T01:58:47;14.00;75.20
15554;DHT22;7878;44.632;10.942;2023-03-12T02:01:15;14.00;76.10
15554;DHT22;7878;44.632;10.942;2023-03-12T02:03:42;14.00;75.60
15554;DHT22;7878;44.632;10.942;2023-03-12T02:06:13;14.00;75.90
15554;DHT22;7878;44.632;10.942;2023-03-12T02:08:42;14.00;75.60
15554;DHT22;7878;44.632;10.942;2023-03-12T02:11:09;14.00;76.30
15554;DHT22;7878;44.632;10.942;2023-03-12T02:13:35;13.90;76.60
15554;DHT22;7878;44.632;10.942;2023-03-12T02:16:01;13.80;76.80
15554;DHT22;7878;44.632;10.942;2023-03-12T02:18:27;13.80;76.80
15554;DHT22;7878;44.632;10.942;2023-03-12T02:26:26;13.90;77.50
15554;DHT22;7878;44.632;10.942;2023-03-12T02:28:53;14.00;77.10
15554;DHT22;7878;44.632;10.942;2023-03-12T02:31:25;14.00;77.50
15554;DHT22;7878;44.632;10.942;2023-03-12T02:33:52;14.00;78.20
15554;DHT22;7878;44.632;10.942;2023-03-12T02:36:20;13.90;77.60
15554;DHT22;7878;44.632;10.942;2023-03-12T02:38:49;13.80;76.80
15554;DHT22;7878;44.632;10.942;2023-03-12T02:46:39;13.70;77.90
15554;DHT22;7878;44.632;10.942;2023-03-12T02:49:05;13.70;78.00
15554;DHT22;7878;44.632;10.942;2023-03-12T02:51:31;13.70;77.50
15554;DHT22;7878;44.632;10.942;2023-03-12T02:53:56;13.70;77.30
15554;DHT22;7878;44.632;10.942;2023-03-12T02:56:24;13.70;78.30
15554;DHT22;7878;44.632;10.942;2023-03-12T02:58:50;13.70;77.80
15554;DHT22;7878;44.632;10.942;2023-03-12T03:01:19;13.70;77.90
15554;DHT22;7878;44.632;10.942;2023-03-12T03:03:46;13.70;77.40
15554;DHT22;7878;44.632;10.942;2023-03-12T03:06:12;13.60;77.90
15554;DHT22;7878;44.632;10.942;2023-03-12T03:08:38;13.60;77.80
15554;DHT22;7878;44.632;10.942;2023-03-12T03:11:05;13.50;77.80
15554;DHT22;7878;44.632;10.942;2023-03-12T03:13:32;13.50;78.10
15554;DHT22;7878;44.632;10.942;2023-03-12T03:15:58;13.40;78.20
15554;DHT22;7878;44.632;10.942;2023-03-12T03:18:24;13.40;78.40
15554;DHT22;7878;44.632;10.942;2023-03-12T03:21:02;13.30;78.50
15554;DHT22;7878;44.632;10.942;2023-03-12T03:23:28;13.30;80.00
15554;DHT22;7878;44.632;10.942;2023-03-12T03:25:56;13.10;78.50
15554;DHT22;7878;44.632;10.942;2023-03-12T03:28:23;13.10;78.10
15554;DHT22;7878;44.632;10.942;2023-03-12T03:30:53;13.20;78.90
15554;DHT22;7878;44.632;10.942;2023-03-12T03:33:23;13.20;78.30
15554;DHT22;7878;44.632;10.942;2023-03-12T03:35:49;13.20;77.80
15554;DHT22;7878;44.632;10.942;2023-03-12T03:38:15;13.20;77.10
15554;DHT22;7878;44.632;10.942;2023-03-12T03:40:41;13.20;78.10
15554;DHT22;7878;44.632;10.942;2023-03-12T03:43:06;13.20;77.50
15554;DHT22;7878;44.632;10.942;2023-03-12T03:45:32;13.20;77.70
15554;DHT22;7878;44.632;10.942;2023-03-12T03:47:58;13.30;76.80
15554;DHT22;7878;44.632;10.942;2023-03-12T03:50:23;13.40;77.10
15554;DHT22;7878;44.632;10.942;2023-03-12T03:52:49;13.60;76.20
15554;DHT22;7878;44.632;10.942;2023-03-12T03:55:15;13.70;76.70
15554;DHT22;7878;44.632;10.942;2023-03-12T03:57:40;13.70;76.50
15554;DHT22;7878;44.632;10.942;2023-03-12T04:00:07;13.70;76.10
15554;DHT22;7878;44.632;10.942;2023-03-12T04:02:34;13.80;75.60
15554;DHT22;7878;44.632;10.942;2023-03-12T04:05:00;13.80;76.10
15554;DHT22;7878;44.632;10.942;2023-03-12T04:07:26;13.80;75.60
15554;DHT22;7878;44.632;10.942;2023-03-12T04:09:53;13.80;75.40
15554;DHT22;7878;44.632;10.942;2023-03-12T04:12:19;13.90;75.20
15554;DHT22;7878;44.632;10.942;2023-03-12T04:14:44;13.90;75.40
15554;DHT22;7878;44.632;10.942;2023-03-12T04:17:10;13.90;74.80
15554;DHT22;7878;44.632;10.942;2023-03-12T04:19:36;14.00;75.40
15554;DHT22;7878;44.632;10.942;2023-03-12T04:22:03;13.90;75.00
15554;DHT22;7878;44.632;10.942;2023-03-12T04:24:28;14.00;74.70
15554;DHT22;7878;44.632;10.942;2023-03-12T04:26:55;14.00;74.50
15554;DHT22;7878;44.632;10.942;2023-03-12T04:29:21;13.90;75.10
15554;DHT22;7878;44.632;10.942;2023-03-12T04:31:47;13.70;74.70
15554;DHT22;7878;44.632;10.942;2023-03-12T04:34:12;13.60;74.70
15554;DHT22;7878;44.632;10.942;2023-03-12T04:36:38;13.40;75.30
15554;DHT22;7878;44.632;10.942;2023-03-12T04:39:04;13.30;75.20
15554;DHT22;7878;44.632;10.942;2023-03-12T04:41:32;13.20;75.30
15554;DHT22;7878;44.632;10.942;2023-03-12T04:43:58;13.20;76.20
15554;DHT22;7878;44.632;10.942;2023-03-12T04:46:24;13.10;76.10
15554;DHT22;7878;44.632;10.942;2023-03-12T04:48:50;13.00;75.80
15554;DHT22;7878;44.632;10.942;2023-03-12T04:51:16;13.00;76.10
15554;DHT22;7878;44.632;10.942;2023-03-12T04:53:42;13.00;75.40
15554;DHT22;7878;44.632;10.942;2023-03-12T04:56:08;12.90;75.70
15554;DHT22;7878;44.632;10.942;2023-03-12T04:58:33;12.80;75.90
15554;DHT22;7878;44.632;10.942;2023-03-12T05:01:00;12.70;75.70
15554;DHT22;7878;44.632;10.942;2023-03-12T05:03:26;12.70;75.80
15554;DHT22;7878;44.632;10.942;2023-03-12T05:05:52;12.70;75.70
15554;DHT22;7878;44.632;10.942;2023-03-12T05:08:17;12.70;75.80
15554;DHT22;7878;44.632;10.942;2023-03-12T05:10:43;12.60;75.60
15554;DHT22;7878;44.632;10.942;2023-03-12T05:13:18;12.50;76.30
15554;DHT22;7878;44.632;10.942;2023-03-12T05:15:44;12.50;77.20
15554;DHT22;7878;44.632;10.942;2023-03-12T05:18:12;12.30;76.20
15554;DHT22;7878;44.632;10.942;2023-03-12T05:20:38;12.20;77.00
15554;DHT22;7878;44.632;10.942;2023-03-12T05:23:04;12.10;76.70
15554;DHT22;7878;44.632;10.942;2023-03-12T05:25:29;12.10;76.90
15554;DHT22;7878;44.632;10.942;2023-03-12T05:27:55;12.20;76.70
15554;DHT22;7878;44.632;10.942;2023-03-12T05:30:21;12.30;76.50
15554;DHT22;7878;44.632;10.942;2023-03-12T05:32:47;12.30;76.20
15554;DHT22;7878;44.632;10.942;2023-03-12T05:35:12;12.20;76.50
15554;DHT22;7878;44.632;10.942;2023-03-12T05:37:38;12.20;76.50
15554;DHT22;7878;44.632;10.942;2023-03-12T05:40:10;12.20;76.80
15554;DHT22;7878;44.632;10.942;2023-03-12T05:42:36;12.10;76.30
15554;DHT22;7878;44.632;10.942;2023-03-12T05:45:03;12.00;77.30
15554;DHT22;7878;44.632;10.942;2023-03-12T05:47:29;11.90;77.50
15554;DHT22;7878;44.632;10.942;2023-03-12T05:49:55;12.00;76.70
15554;DHT22;7878;44.632;10.942;2023-03-12T05:52:20;12.00;76.90
15554;DHT22;7878;44.632;10.942;2023-03-12T05:54:46;12.00;77.10
15554;DHT22;7878;44.632;10.942;2023-03-12T05:57:12;11.90;77.20
15554;DHT22;7878;44.632;10.942;2023-03-12T05:59:38;11.90;76.50
15554;DHT22;7878;44.632;10.942;2023-03-12T06:02:03;12.00;76.70
15554;DHT22;7878;44.632;10.942;2023-03-12T06:04:29;12.00;77.60
15554;DHT22;7878;44.632;10.942;2023-03-12T06:06:55;12.10;76.00
15554;DHT22;7878;44.632;10.942;2023-03-12T06:09:20;12.20;76.70
15554;DHT22;7878;44.632;10.942;2023-03-12T06:11:46;12.10;77.30
15554;DHT22;7878;44.632;10.942;2023-03-12T06:14:11;12.10;77.20
15554;DHT22;7878;44.632;10.942;2023-03-12T06:16:37;12.10;76.50
15554;DHT22;7878;44.632;10.942;2023-03-12T06:19:04;12.20;78.10
15554;DHT22;7878;44.632;10.942;2023-03-12T06:21:32;12.30;76.60
15554;DHT22;7878;44.632;10.942;2023-03-12T06:23:58;12.30;76.20
15554;DHT22;7878;44.632;10.942;2023-03-12T06:26:25;12.30;76.60
15554;DHT22;7878;44.632;10.942;2023-03-12T06:28:51;12.40;77.10
15554;DHT22;7878;44.632;10.942;2023-03-12T06:31:17;12.50;75.90
15554;DHT22;7878;44.632;10.942;2023-03-12T06:33:43;12.70;76.40
15554;DHT22;7878;44.632;10.942;2023-03-12T06:36:10;12.80;76.10
15554;DHT22;7878;44.632;10.942;2023-03-12T06:38:36;12.80;76.30
15554;DHT22;7878;44.632;10.942;2023-03-12T06:41:09;12.90;76.00
15554;DHT22;7878;44.632;10.942;2023-03-12T06:43:36;12.90;75.80
15554;DHT22;7878;44.632;10.942;2023-03-12T06:46:03;12.90;75.10
15554;DHT22;7878;44.632;10.942;2023-03-12T06:48:30;13.00;75.60
15554;DHT22;7878;44.632;10.942;2023-03-12T06:50:58;13.10;75.70
15554;DHT22;7878;44.632;10.942;2023-03-12T06:53:24;13.10;75.60
15554;DHT22;7878;44.632;10.942;2023-03-12T06:55:51;13.00;75.40
15554;DHT22;7878;44.632;10.942;2023-03-12T06:58:18;13.10;75.10
15554;DHT22;7878;44.632;10.942;2023-03-12T07:00:44;13.10;75.20
15554;DHT22;7878;44.632;10.942;2023-03-12T07:03:09;13.20;75.90
15554;DHT22;7878;44.632;10.942;2023-03-12T07:05:35;13.10;75.50
15554;DHT22;7878;44.632;10.942;2023-03-12T07:08:01;13.10;76.10
15554;DHT22;7878;44.632;10.942;2023-03-12T07:10:27;13.10;75.30
15554;DHT22;7878;44.632;10.942;2023-03-12T07:12:54;13.20;75.40
15554;DHT22;7878;44.632;10.942;2023-03-12T07:15:20;13.30;75.70
15554;DHT22;7878;44.632;10.942;2023-03-12T07:17:46;13.30;75.10
15554;DHT22;7878;44.632;10.942;2023-03-12T07:20:12;13.30;75.80
15554;DHT22;7878;44.632;10.942;2023-03-12T07:22:38;13.20;77.10
15554;DHT22;7878;44.632;10.942;2023-03-12T07:25:04;13.10;76.70
15554;DHT22;7878;44.632;10.942;2023-03-12T07:27:30;13.10;76.10
15554;DHT22;7878;44.632;10.942;2023-03-12T07:29:55;13.20;75.80
15554;DHT22;7878;44.632;10.942;2023-03-12T07:32:21;13.30;76.30
15554;DHT22;7878;44.632;10.942;2023-03-12T07:34:47;13.30;75.80
15554;DHT22;7878;44.632;10.942;2023-03-12T07:37:12;13.50;75.80
15554;DHT22;7878;44.632;10.942;2023-03-12T07:39:38;13.50;75.70
15554;DHT22;7878;44.632;10.942;2023-03-12T07:42:04;13.50;75.20
15554;DHT22;7878;44.632;10.942;2023-03-12T07:44:30;13.60;75.60
15554;DHT22;7878;44.632;10.942;2023-03-12T07:46:55;13.50;75.50
15554;DHT22;7878;44.632;10.942;2023-03-12T07:49:21;13.50;75.70
15554;DHT22;7878;44.632;10.942;2023-03-12T07:51:47;13.60;76.00
15554;DHT22;7878;44.632;10.942;2023-03-12T07:54:13;13.70;75.50
15554;DHT22;7878;44.632;10.942;2023-03-12T07:56:38;14.00;75.10
15554;DHT22;7878;44.632;10.942;2023-03-12T07:59:04;14.10;74.90
15554;DHT22;7878;44.632;10.942;2023-03-12T08:01:30;14.10;75.00
15554;DHT22;7878;44.632;10.942;2023-03-12T08:04:00;14.00;75.20
15554;DHT22;7878;44.632;10.942;2023-03-12T08:06:27;14.00;75.30
15554;DHT22;7878;44.632;10.942;2023-03-12T08:08:53;14.00;74.60
15554;DHT22;7878;44.632;10.942;2023-03-12T08:11:18;14.00;74.70
15554;DHT22;7878;44.632;10.942;2023-03-12T08:13:44;14.00;74.40
15554;DHT22;7878;44.632;10.942;2023-03-12T08:16:10;14.10;74.60
15554;DHT22;7878;44.632;10.942;2023-03-12T08:18:36;14.10;74.80
15554;DHT22;7878;44.632;10.942;2023-03-12T08:21:01;14.10;74.70
15554;DHT22;7878;44.632;10.942;2023-03-12T08:23:27;14.20;75.00
15554;DHT22;7878;44.632;10.942;2023-03-12T08:25:53;14.30;75.00
15554;DHT22;7878;44.632;10.942;2023-03-12T08:28:20;14.30;74.90
15554;DHT22;7878;44.632;10.942;2023-03-12T08:30:47;14.30;75.30
15554;DHT22;7878;44.632;10.942;2023-03-12T08:33:13;14.30;75.40
15554;DHT22;7878;44.632;10.942;2023-03-12T08:35:39;14.20;74.80
15554;DHT22;7878;44.632;10.942;2023-03-12T08:38:05;14.10;75.30
15554;DHT22;7878;44.632;10.942;2023-03-12T08:40:30;14.20;75.50
15554;DHT22;7878;44.632;10.942;2023-03-12T08:42:56;14.20;75.40
15554;DHT22;7878;44.632;10.942;2023-03-12T08:45:22;14.30;75.50
15554;DHT22;7878;44.632;10.942;2023-03-12T08:47:47;14.50;75.40
15554;DHT22;7878;44.632;10.942;2023-03-12T08:50:15;14.50;74.70
15554;DHT22;7878;44.632;10.942;2023-03-12T08:52:45;14.70;75.40
15554;DHT22;7878;44.632;10.942;2023-03-12T08:55:11;14.60;74.30
15554;DHT22;7878;44.632;10.942;2023-03-12T08:57:38;14.70;75.30
15554;DHT22;7878;44.632;10.942;2023-03-12T09:00:05;14.80;75.00
15554;DHT22;7878;44.632;10.942;2023-03-12T09:02:36;14.70;75.00
15554;DHT22;7878;44.632;10.942;2023-03-12T09:05:02;14.70;75.10
15554;DHT22;7878;44.632;10.942;2023-03-12T09:07:29;14.70;75.10
15554;DHT22;7878;44.632;10.942;2023-03-12T09:09:55;14.80;75.10
15554;DHT22;7878;44.632;10.942;2023-03-12T09:12:20;14.80;75.00
15554;DHT22;7878;44.632;10.942;2023-03-12T09:14:46;14.80;75.40
15554;DHT22;7878;44.632;10.942;2023-03-12T09:17:12;14.90;75.50
15554;DHT22;7878;44.632;10.942;2023-03-12T09:19:38;15.00;74.70
15554;DHT22;7878;44.632;10.942;2023-03-12T09:22:04;15.30;74.60
15554;DHT22;7878;44.632;10.942;2023-03-12T09:24:30;15.60;74.20
15554;DHT22;7878;44.632;10.942;2023-03-12T09:26:55;15.80;73.60
15554;DHT22;7878;44.632;10.942;2023-03-12T09:29:21;16.20;73.40
15554;DHT22;7878;44.632;10.942;2023-03-12T09:31:47;16.50;73.10
15554;DHT22;7878;44.632;10.942;2023-03-12T09:34:13;17.00;72.50
15554;DHT22;7878;44.632;10.942;2023-03-12T09:36:39;17.20;72.20
15554;DHT22;7878;44.632;10.942;2023-03-12T09:39:13;17.20;71.50
15554;DHT22;7878;44.632;10.942;2023-03-12T09:41:39;17.00;72.20
15554;DHT22;7878;44.632;10.942;2023-03-12T09:46:53;16.90;71.90
15554;DHT22;7878;44.632;10.942;2023-03-12T09:49:24;17.10;72.10
15554;DHT22;7878;44.632;10.942;2023-03-12T09:51:56;17.30;71.40
15554;DHT22;7878;44.632;10.942;2023-03-12T09:56:53;17.30;70.90
15554;DHT22;7878;44.632;10.942;2023-03-12T09:59:21;17.30;71.00
15554;DHT22;7878;44.632;10.942;2023-03-12T10:01:51;17.30;70.90
15554;DHT22;7878;44.632;10.942;2023-03-12T10:15:27;17.60;71.20
15554;DHT22;7878;44.632;10.942;2023-03-12T10:26:09;18.20;69.90
15554;DHT22;7878;44.632;10.942;2023-03-12T10:28:44;18.60;69.20
15554;DHT22;7878;44.632;10.942;2023-03-12T10:31:18;19.30;69.00
15554;DHT22;7878;44.632;10.942;2023-03-12T10:33:53;20.50;67.80
15554;DHT22;7878;44.632;10.942;2023-03-12T10:36:28;21.30;66.10
15554;DHT22;7878;44.632;10.942;2023-03-12T10:38:58;21.20;65.10
15554;DHT22;7878;44.632;10.942;2023-03-12T10:41:28;21.00;65.30
15554;DHT22;7878;44.632;10.942;2023-03-12T10:43:57;20.90;65.10
15554;DHT22;7878;44.632;10.942;2023-03-12T10:49:31;20.50;65.10
15554;DHT22;7878;44.632;10.942;2023-03-12T10:54:28;20.60;65.50
15554;DHT22;7878;44.632;10.942;2023-03-12T10:56:54;20.90;64.70
15554;DHT22;7878;44.632;10.942;2023-03-12T10:59:21;21.20;64.90
15554;DHT22;7878;44.632;10.942;2023-03-12T11:01:50;21.30;64.60
15554;DHT22;7878;44.632;10.942;2023-03-12T11:04:28;22.00;64.10
15554;DHT22;7878;44.632;10.942;2023-03-12T11:09:45;23.50;62.20
15554;DHT22;7878;44.632;10.942;2023-03-12T11:12:28;24.10;61.90
15554;DHT22;7878;44.632;10.942;2023-03-12T11:14:55;24.00;60.40
15554;DHT22;7878;44.632;10.942;2023-03-12T11:17:24;23.50;61.50
15554;DHT22;7878;44.632;10.942;2023-03-12T11:19:50;22.80;60.90
15554;DHT22;7878;44.632;10.942;2023-03-12T11:22:31;22.10;61.70
15554;DHT22;7878;44.632;10.942;2023-03-12T11:25:05;21.90;62.60
15554;DHT22;7878;44.632;10.942;2023-03-12T11:27:45;22.00;63.10
15554;DHT22;7878;44.632;10.942;2023-03-12T11:30:48;25.00;61.70
15554;DHT22;7878;44.632;10.942;2023-03-12T11:33:08;27.40;59.00
15554;DHT22;7878;44.632;10.942;2023-03-12T11:46:42;27.20;55.80
15554;DHT22;7878;44.632;10.942;2023-03-12T12:00:55;28.90;52.20
15554;DHT22;7878;44.632;10.942;2023-03-12T12:15:13;32.10;49.90
15554;DHT22;7878;44.632;10.942;2023-03-12T12:34:39;27.00;51.50
15554;DHT22;7878;44.632;10.942;2023-03-12T12:45:22;23.20;57.30
15554;DHT22;7878;44.632;10.942;2023-03-12T12:47:54;22.80;57.50
15554;DHT22;7878;44.632;10.942;2023-03-12T12:50:24;22.50;58.00
15554;DHT22;7878;44.632;10.942;2023-03-12T12:52:58;22.10;58.80
15554;DHT22;7878;44.632;10.942;2023-03-12T12:55:39;21.90;58.80
15554;DHT22;7878;44.632;10.942;2023-03-12T12:58:25;21.70;59.10
15554;DHT22;7878;44.632;10.942;2023-03-12T13:00:59;21.30;59.80
15554;DHT22;7878;44.632;10.942;2023-03-12T13:03:26;21.10;59.60
15554;DHT22;7878;44.632;10.942;2023-03-12T13:05:59;21.00;59.90
15554;DHT22;7878;44.632;10.942;2023-03-12T13:13:42;20.80;60.70
15554;DHT22;7878;44.632;10.942;2023-03-12T13:21:40;20.40;61.60
15554;DHT22;7878;44.632;10.942;2023-03-12T13:24:31;20.30;61.70
15554;DHT22;7878;44.632;10.942;2023-03-12T13:29:48;20.10;62.10
15554;DHT22;7878;44.632;10.942;2023-03-12T13:43:15;20.00;63.20
15554;DHT22;7878;44.632;10.942;2023-03-12T13:45:54;19.90;63.50
15554;DHT22;7878;44.632;10.942;2023-03-12T13:48:21;19.80;62.90
15554;DHT22;7878;44.632;10.942;2023-03-12T13:50:52;19.90;63.70
15554;DHT22;7878;44.632;10.942;2023-03-12T13:53:32;19.70;63.50
15554;DHT22;7878;44.632;10.942;2023-03-12T13:56:02;19.50;64.00
15554;DHT22;7878;44.632;10.942;2023-03-12T13:58:29;19.50;63.80
15554;DHT22;7878;44.632;10.942;2023-03-12T14:01:02;19.40;63.90
15554;DHT22;7878;44.632;10.942;2023-03-12T14:03:41;19.40;64.30
15554;DHT22;7878;44.632;10.942;2023-03-12T14:06:13;19.40;65.00
15554;DHT22;7878;44.632;10.942;2023-03-12T14:08:44;19.30;64.10
15554;DHT22;7878;44.632;10.942;2023-03-12T14:17:22;19.30;64.90
15554;DHT22;7878;44.632;10.942;2023-03-12T14:19:59;19.30;64.90
15554;DHT22;7878;44.632;10.942;2023-03-12T14:22:33;19.20;65.00
15554;DHT22;7878;44.632;10.942;2023-03-12T14:25:30;19.30;64.50
15554;DHT22;7878;44.632;10.942;2023-03-12T14:27:51;19.30;65.00
15554;DHT22;7878;44.632;10.942;2023-03-12T14:30:29;19.10;65.20
15554;DHT22;7878;44.632;10.942;2023-03-12T14:32:58;18.90;66.00
15554;DHT22;7878;44.632;10.942;2023-03-12T14:35:32;18.90;64.90
15554;DHT22;7878;44.632;10.942;2023-03-12T14:40:38;18.90;66.00
15554;DHT22;7878;44.632;10.942;2023-03-12T14:43:38;18.90;65.80
15554;DHT22;7878;44.632;10.942;2023-03-12T14:46:13;18.90;66.60
15554;DHT22;7878;44.632;10.942;2023-03-12T14:48:39;18.80;65.20
15554;DHT22;7878;44.632;10.942;2023-03-12T14:51:06;18.80;65.20
15554;DHT22;7878;44.632;10.942;2023-03-12T14:53:34;18.80;65.30
15554;DHT22;7878;44.632;10.942;2023-03-12T14:56:02;18.90;65.30
15554;DHT22;7878;44.632;10.942;2023-03-12T14:58:29;18.90;65.30
15554;DHT22;7878;44.632;10.942;2023-03-12T15:01:06;18.90;64.70
15554;DHT22;7878;44.632;10.942;2023-03-12T15:03:54;19.00;64.80
15554;DHT22;7878;44.632;10.942;2023-03-12T15:06:37;19.00;66.10
15554;DHT22;7878;44.632;10.942;2023-03-12T15:09:05;19.00;65.20
15554;DHT22;7878;44.632;10.942;2023-03-12T15:11:34;19.00;65.10
15554;DHT22;7878;44.632;10.942;2023-03-12T15:14:06;19.10;64.70
15554;DHT22;7878;44.632;10.942;2023-03-12T15:16:32;19.10;64.90
15554;DHT22;7878;44.632;10.942;2023-03-12T15:19:00;19.10;64.90
15554;DHT22;7878;44.632;10.942;2023-03-12T15:21:26;19.10;64.90
15554;DHT22;7878;44.632;10.942;2023-03-12T15:23:52;19.00;64.70
15554;DHT22;7878;44.632;10.942;2023-03-12T15:28:58;19.00;64.70
15554;DHT22;7878;44.632;10.942;2023-03-12T15:31:25;19.10;65.30
15554;DHT22;7878;44.632;10.942;2023-03-12T15:34:03;19.00;64.70
15554;DHT22;7878;44.632;10.942;2023-03-12T15:36:30;18.90;65.10
15554;DHT22;7878;44.632;10.942;2023-03-12T15:39:00;18.90;64.80
15554;DHT22;7878;44.632;10.942;2023-03-12T15:41:30;19.00;65.10
15554;DHT22;7878;44.632;10.942;2023-03-12T15:44:00;19.00;64.60
15554;DHT22;7878;44.632;10.942;2023-03-12T15:46:26;19.00;64.70
15554;DHT22;7878;44.632;10.942;2023-03-12T15:48:55;18.90;64.60
15554;DHT22;7878;44.632;10.942;2023-03-12T15:51:33;18.90;64.70
15554;DHT22;7878;44.632;10.942;2023-03-12T15:54:20;18.90;65.30
15554;DHT22;7878;44.632;10.942;2023-03-12T15:56:46;18.90;65.00
15554;DHT22;7878;44.632;10.942;2023-03-12T16:01:52;18.70;65.60
15554;DHT22;7878;44.632;10.942;2023-03-12T16:04:19;18.60;66.20
15554;DHT22;7878;44.632;10.942;2023-03-12T16:06:46;18.50;65.40
15554;DHT22;7878;44.632;10.942;2023-03-12T16:09:33;18.50;65.50
15554;DHT22;7878;44.632;10.942;2023-03-12T16:11:59;18.50;66.90
15554;DHT22;7878;44.632;10.942;2023-03-12T16:14:30;18.50;65.50
15554;DHT22;7878;44.632;10.942;2023-03-12T16:16:57;18.50;65.40
15554;DHT22;7878;44.632;10.942;2023-03-12T16:19:27;18.50;65.50
15554;DHT22;7878;44.632;10.942;2023-03-12T16:22:13;18.50;65.50
15554;DHT22;7878;44.632;10.942;2023-03-12T16:24:39;18.50;66.80
15554;DHT22;7878;44.632;10.942;2023-03-12T16:27:05;18.50;65.60
15554;DHT22;7878;44.632;10.942;2023-03-12T16:29:34;18.50;65.50
15554;DHT22;7878;44.632;10.942;2023-03-12T16:32:00;18.40;65.90
15554;DHT22;7878;44.632;10.942;2023-03-12T16:34:27;18.30;65.60
15554;DHT22;7878;44.632;10.942;2023-03-12T16:36:53;18.30;65.70
15554;DHT22;7878;44.632;10.942;2023-03-12T16:39:19;18.20;66.00
15554;DHT22;7878;44.632;10.942;2023-03-12T16:41:45;18.20;66.10
15554;DHT22;7878;44.632;10.942;2023-03-12T16:44:17;18.20;66.10
15554;DHT22;7878;44.632;10.942;2023-03-12T16:46:44;18.10;66.90
15554;DHT22;7878;44.632;10.942;2023-03-12T16:49:15;18.00;66.40
15554;DHT22;7878;44.632;10.942;2023-03-12T16:51:41;18.00;67.10
15554;DHT22;7878;44.632;10.942;2023-03-12T16:54:07;17.90;67.00
15554;DHT22;7878;44.632;10.942;2023-03-12T16:56:34;17.80;68.00
15554;DHT22;7878;44.632;10.942;2023-03-12T16:59:03;17.70;67.40
15554;DHT22;7878;44.632;10.942;2023-03-12T17:01:29;17.70;67.80
15554;DHT22;7878;44.632;10.942;2023-03-12T17:03:56;17.60;67.40
15554;DHT22;7878;44.632;10.942;2023-03-12T17:06:23;17.60;67.80
15554;DHT22;7878;44.632;10.942;2023-03-12T17:08:50;17.60;68.00
15554;DHT22;7878;44.632;10.942;2023-03-12T17:11:28;17.50;68.60
15554;DHT22;7878;44.632;10.942;2023-03-12T17:13:57;17.40;70.00
15554;DHT22;7878;44.632;10.942;2023-03-12T17:16:24;17.20;69.00
15554;DHT22;7878;44.632;10.942;2023-03-12T17:18:50;17.10;68.60
15554;DHT22;7878;44.632;10.942;2023-03-12T17:21:17;17.00;68.60
15554;DHT22;7878;44.632;10.942;2023-03-12T17:23:45;17.00;69.60
15554;DHT22;7878;44.632;10.942;2023-03-12T17:26:12;16.90;69.10
15554;DHT22;7878;44.632;10.942;2023-03-12T17:28:38;16.80;68.90
15554;DHT22;7878;44.632;10.942;2023-03-12T17:31:04;16.70;69.90
15554;DHT22;7878;44.632;10.942;2023-03-12T17:33:29;16.60;69.20
15554;DHT22;7878;44.632;10.942;2023-03-12T17:36:04;16.60;70.70
15554;DHT22;7878;44.632;10.942;2023-03-12T17:38:31;16.40;71.00
15554;DHT22;7878;44.632;10.942;2023-03-12T17:40:58;16.30;70.90
15554;DHT22;7878;44.632;10.942;2023-03-12T17:43:24;16.20;71.40
15554;DHT22;7878;44.632;10.942;2023-03-12T17:45:50;16.10;71.00
15554;DHT22;7878;44.632;10.942;2023-03-12T17:48:16;16.00;71.00
15554;DHT22;7878;44.632;10.942;2023-03-12T17:50:43;15.90;71.40
15554;DHT22;7878;44.632;10.942;2023-03-12T17:53:08;15.80;71.00
15554;DHT22;7878;44.632;10.942;2023-03-12T17:55:35;15.70;71.20
15554;DHT22;7878;44.632;10.942;2023-03-12T17:58:01;15.70;71.10
15554;DHT22;7878;44.632;10.942;2023-03-12T18:00:29;15.70;70.80
15554;DHT22;7878;44.632;10.942;2023-03-12T18:02:54;15.60;71.30